Time;durP1;ratioP1;P1;durP2;ratioP2;P2;SDS_P1;SDS_P2;PMS_P1;PMS_P2;Temp;Humidity;BMP_temperature;BMP_pressure;BME280_temperature;BME280_humidity;BME280_pressure;Samples;Min_cycle;Max_cycle;Signal;HPM_P1;HPM_P2
2022/01/28 00:01:45;;;;;;;7.22;1.60;;;;;;;5.01;74.68;100621.34;5030503;28;20225;-73
2022/01/28 00:04:15;;;;;;;11.38;1.45;;;;;;;4.98;73.84;100684.94;5031639;28;20052;-74
2022/01/28 00:06:41;;;;;;;10.55;1.70;;;;;;;5.04;74.04;100634.47;5031450;28;20120;-74
2022/01/28 00:09:06;;;;;;;6.22;1.05;;;;;;;5.02;73.16;100646.63;5031745;28;20135;-74
2022/01/28 00:11:32;;;;;;;7.50;1.50;;;;;;;4.96;73.27;100649.16;5030956;28;20033;-73
2022/01/28 00:14:13;;;;;;;8.55;1.27;;;;;;;5.02;73.28;100667.56;5023177;28;20403;-73
2022/01/28 00:17:07;;;;;;;10.23;1.45;;;;;;;5.02;72.59;100650.13;5030542;28;20084;-73
2022/01/28 00:38:35;;;;;;;8.30;1.92;;;;;;;4.13;80.80;100697.09;5027830;28;20116;-74
2022/01/28 00:41:00;;;;;;;12.32;1.30;;;;;;;4.10;81.87;100683.97;5031116;28;20069;-74
2022/01/28 00:43:26;;;;;;;9.73;1.88;;;;;;;4.07;81.67;100681.28;5031118;28;20064;-74
2022/01/28 00:45:51;;;;;;;9.52;1.55;;;;;;;4.09;81.24;100682.22;5030906;28;20048;-73
2022/01/28 00:48:16;;;;;;;10.13;1.60;;;;;;;4.15;80.67;100687.56;5031144;28;20041;-73
2022/01/28 00:50:42;;;;;;;6.70;1.90;;;;;;;4.17;80.68;100685.88;5030912;28;20049;-73
2022/01/28 00:53:09;;;;;;;10.60;1.48;;;;;;;4.21;80.01;100702.50;5031182;28;20073;-73
2022/01/28 00:55:35;;;;;;;12.95;1.98;;;;;;;4.29;77.17;100712.25;5030396;28;20073;-73
2022/01/28 00:58:00;;;;;;;5.57;1.15;;;;;;;4.41;76.63;100695.97;5033327;28;20068;-73
2022/01/28 01:00:26;;;;;;;10.13;1.50;;;;;;;4.47;75.56;100723.97;5035103;28;20467;-73
2022/01/28 01:02:51;;;;;;;14.30;1.60;;;;;;;4.51;76.58;100697.06;5035090;28;20095;-73
2022/01/28 01:05:17;;;;;;;7.65;1.80;;;;;;;4.59;74.11;100737.31;5032001;28;20037;-73
2022/01/28 01:07:42;;;;;;;9.35;2.05;;;;;;;4.45;75.77;100739.59;5032925;28;20116;-74
2022/01/28 01:10:09;;;;;;;9.93;1.70;;;;;;;4.44;75.01;100710.84;5034808;28;20033;-73
2022/01/28 01:12:40;;;;;;;15.10;2.83;;;;;;;4.35;76.52;100754.22;5030585;28;20649;-73
2022/01/28 01:15:06;;;;;;;10.40;2.50;;;;;;;4.36;77.67;100726.34;5032150;28;20102;-73
2022/01/28 01:17:40;;;;;;;9.23;1.73;;;;;;;4.26;77.49;100721.78;5034810;28;20029;-73
2022/01/28 01:23:06;;;;;;;12.20;2.13;;;;;;;4.15;79.12;100752.88;5038846;28;20053;-73
2022/01/28 01:25:42;;;;;;;13.00;2.28;;;;;;;3.98;81.07;100741.13;5030593;28;20030;-73
2022/01/28 01:28:09;;;;;;;12.02;2.45;;;;;;;3.92;81.92;100724.47;5034553;28;20033;-73
2022/01/28 01:30:39;;;;;;;13.88;2.10;;;;;;;3.88;81.37;100729.63;5034456;28;20046;-73
2022/01/28 01:33:05;;;;;;;10.65;1.75;;;;;;;3.89;80.46;100727.00;5034558;28;20042;-73
2022/01/28 01:35:32;;;;;;;12.27;2.80;;;;;;;3.91;80.61;100745.34;5034111;28;20040;-73
2022/01/28 01:37:57;;;;;;;14.18;2.53;;;;;;;4.04;78.54;100762.19;5033080;28;20040;-74
2022/01/28 01:40:28;;;;;;;12.65;1.73;;;;;;;4.11;78.29;100743.19;5034422;28;20108;-73
2022/01/28 01:43:07;;;;;;;13.45;2.05;;;;;;;4.18;78.56;100776.44;5033205;28;20039;-74
2022/01/28 01:53:26;;;;;;;12.70;2.42;;;;;;;4.57;74.92;100786.94;5032982;28;20033;-73
2022/01/28 01:55:51;;;;;;;9.68;2.00;;;;;;;4.47;74.90;100826.78;5033878;28;20047;-73
2022/01/28 01:58:24;;;;;;;9.60;2.10;;;;;;;4.48;75.88;100818.13;5024623;28;20085;-73
2022/01/28 02:00:49;;;;;;;;;;;;;;;4.31;77.36;100801.16;5034364;28;20026;-73
2022/01/28 02:03:14;;;;;;;11.75;1.50;;;;;;;4.25;76.87;100794.03;5033923;28;20352;-73
2022/01/28 02:05:40;;;;;;;11.48;2.65;;;;;;;4.22;76.71;100780.91;5033695;28;20037;-73
2022/01/28 02:08:06;;;;;;;12.95;2.15;;;;;;;4.23;77.17;100803.56;5033285;28;20495;-73
2022/01/28 02:10:34;;;;;;;12.45;2.13;;;;;;;4.29;76.57;100803.72;5031319;28;20445;-73
2022/01/28 02:13:00;;;;;;;14.95;2.83;;;;;;;4.25;76.79;100794.03;5033663;28;20112;-73
2022/01/28 02:15:25;;;;;;;11.38;2.30;;;;;;;4.32;76.34;100806.41;5033484;28;20474;-73
2022/01/28 02:17:50;;;;;;;16.80;2.00;;;;;;;4.33;75.87;100786.38;5033624;28;20033;-73
2022/01/28 02:20:24;;;;;;;13.10;1.80;;;;;;;4.45;74.85;100786.66;5032410;28;20033;-73
2022/01/28 02:22:49;;;;;;;14.60;2.20;;;;;;;4.50;74.51;100779.78;5030642;28;20654;-73
2022/01/28 02:25:26;;;;;;;12.23;1.60;;;;;;;4.50;74.06;100795.47;5033381;28;20133;-73
2022/01/28 02:27:52;;;;;;;14.27;2.25;;;;;;;4.55;74.38;100803.44;5035835;28;20045;-73
2022/01/28 02:30:17;;;;;;;13.95;3.17;;;;;;;4.56;74.05;100792.16;5038885;28;20037;-73
2022/01/28 02:32:44;;;;;;;11.70;1.90;;;;;;;4.57;73.92;100788.66;5034223;28;20029;-73
2022/01/28 02:35:10;;;;;;;12.20;2.00;;;;;;;4.58;73.69;100793.03;5033230;28;20411;-73
2022/01/28 02:37:36;;;;;;;13.27;2.40;;;;;;;4.66;73.50;100825.47;5033338;28;20124;-73
2022/01/28 02:40:03;;;;;;;12.40;2.13;;;;;;;4.73;72.90;100813.41;5030348;28;20116;-73
2022/01/28 02:42:44;;;;;;;7.93;1.63;;;;;;;4.72;73.07;100820.38;5032042;28;20458;-73
2022/01/28 02:45:09;;;;;;;12.40;1.75;;;;;;;4.71;73.68;100830.81;5030826;28;20116;-74
2022/01/28 02:47:38;;;;;;;8.75;2.05;;;;;;;4.78;72.10;100815.28;5030781;28;20508;-73
2022/01/28 02:50:07;;;;;;;13.88;2.42;;;;;;;4.71;73.37;100804.66;5029677;28;20373;-73
2022/01/28 02:52:49;;;;;;;14.15;2.00;;;;;;;4.70;73.18;100815.97;5032981;28;20033;-74
2022/01/28 02:55:15;;;;;;;12.30;2.50;;;;;;;4.71;72.64;100839.53;5032824;28;20042;-73
2022/01/28 02:57:51;;;;;;;11.63;2.35;;;;;;;4.72;73.27;100815.16;5032955;28;20033;-73
2022/01/28 03:00:17;;;;;;;13.70;2.38;;;;;;;4.78;72.49;100827.47;5025430;28;20143;-73
2022/01/28 03:02:42;;;;;;;8.40;1.88;;;;;;;4.71;72.63;100818.59;5032722;28;20091;-73
2022/01/28 03:07:45;;;;;;;13.50;2.83;;;;;;;4.74;72.20;100825.63;5029533;28;20041;-74
2022/01/28 03:12:58;;;;;;;10.30;2.17;;;;;;;4.76;71.34;100837.91;5031321;28;20044;-73
2022/01/28 03:15:22;;;;;;;15.18;1.95;;;;;;;4.81;71.70;100846.72;5044388;28;20061;-73
2022/01/28 03:17:56;;;;;;;8.77;1.65;;;;;;;4.78;71.94;100856.25;5032498;28;20037;-74
2022/01/28 03:22:47;;;;;;;11.20;2.00;;;;;;;4.80;71.66;100842.34;5032542;28;20444;-73
2022/01/28 03:25:13;;;;;;;12.13;2.15;;;;;;;4.82;71.26;100856.34;5029932;28;20030;-74
2022/01/28 03:27:52;;;;;;;11.63;2.15;;;;;;;4.86;71.21;100865.16;5032370;28;20403;-73
2022/01/28 03:30:18;;;;;;;10.57;2.08;;;;;;;4.79;72.55;100858.00;5032189;28;20073;-73
2022/01/28 03:32:43;;;;;;;13.35;2.38;;;;;;;4.67;73.21;100871.69;5032352;28;20065;-73
2022/01/28 03:35:10;;;;;;;11.82;1.77;;;;;;;4.57;74.44;100888.00;5031725;28;20549;-73
2022/01/28 03:37:35;;;;;;;18.95;2.60;;;;;;;4.53;73.52;100880.91;5031857;28;20049;-73
2022/01/28 03:40:03;;;;;;;16.50;2.60;;;;;;;4.61;73.12;100887.22;5032023;28;20377;-73
2022/01/28 03:42:28;;;;;;;15.27;3.05;;;;;;;4.58;73.52;100901.13;5031826;28;20064;-74
2022/01/28 03:44:53;;;;;;;12.45;2.60;;;;;;;4.69;72.43;100911.84;5031642;28;20407;-73
2022/01/28 03:47:19;;;;;;;12.70;2.33;;;;;;;4.69;73.09;100885.69;5032057;28;20395;-73
2022/01/28 03:49:44;;;;;;;8.90;1.88;;;;;;;4.69;72.51;100888.31;5030643;28;20415;-73
2022/01/28 03:52:09;;;;;;;15.35;2.92;;;;;;;4.77;72.18;100888.50;5032027;28;20565;-73
2022/01/28 03:54:34;;;;;;;11.32;2.47;;;;;;;4.73;71.84;100892.75;5031560;28;20068;-73
2022/01/28 03:57:00;;;;;;;17.40;2.33;;;;;;;4.70;72.31;100897.91;5030448;28;20079;-73
2022/01/28 03:59:25;;;;;;;15.00;2.90;;;;;;;4.74;71.94;100894.53;5031848;28;20095;-73
2022/01/28 04:01:51;;;;;;;14.90;2.65;;;;;;;4.78;71.74;100906.81;5031802;28;20037;-73
2022/01/28 04:12:12;;;;;;;15.57;3.33;;;;;;;4.45;74.69;100926.91;5031636;28;20053;-73
2022/01/28 04:14:45;;;;;;;13.48;2.20;;;;;;;4.31;76.50;100934.41;5027990;28;20037;-73
2022/01/28 04:17:21;;;;;;;13.75;2.67;;;;;;;4.14;77.44;100940.09;5025956;28;20040;-73
2022/01/28 04:19:48;;;;;;;12.75;2.10;;;;;;;4.23;75.20;100967.28;5029987;28;20041;-73
2022/01/28 04:22:13;;;;;;;15.15;3.42;;;;;;;4.26;76.16;100963.00;5031376;28;20025;-73
2022/01/28 04:24:38;;;;;;;19.13;2.88;;;;;;;4.27;75.76;100953.44;5027312;28;20653;-74
2022/01/28 04:27:04;;;;;;;17.00;3.20;;;;;;;4.30;75.71;100953.56;5031367;28;20068;-73
2022/01/28 04:29:29;;;;;;;9.50;2.20;;;;;;;4.40;73.73;100986.88;5031188;28;20059;-73
2022/01/28 04:31:55;;;;;;;12.65;2.80;;;;;;;4.45;73.48;100990.50;5030473;28;20051;-73
2022/01/28 04:34:22;;;;;;;17.17;3.40;;;;;;;4.55;73.39;100978.56;5029958;28;20032;-74
2022/01/28 04:37:02;;;;;;;15.13;2.60;;;;;;;4.50;73.83;100982.78;5031261;28;20033;-74
2022/01/28 04:45:16;;;;;;;23.30;3.28;;;;;;;4.45;73.23;100968.72;5029533;28;20082;-73
2022/01/28 04:53:28;;;;;;;11.77;2.47;;;;;;;4.56;72.59;100990.81;5028422;28;20034;-74
2022/01/28 04:56:17;;;;;;;11.25;2.42;;;;;;;4.53;72.23;100993.31;5027273;28;20485;-74
2022/01/28 05:16:39;;;;;;;18.02;2.72;;;;;;;4.58;72.23;101023.09;5028147;28;20036;-74
2022/01/28 05:27:01;;;;;;;19.40;2.20;;;;;;;4.32;73.44;101030.22;5028197;28;20116;-73
2022/01/28 05:29:26;;;;;;;16.08;3.25;;;;;;;4.28;73.93;101044.94;5024523;28;20033;-73
2022/01/28 05:31:52;;;;;;;17.63;3.05;;;;;;;4.34;73.22;101055.56;5026403;28;20076;-74
2022/01/28 05:34:17;;;;;;;15.70;2.70;;;;;;;4.38;72.75;101033.91;5028126;28;20045;-73
2022/01/28 05:36:43;;;;;;;12.63;2.58;;;;;;;4.43;72.43;101012.22;5027247;28;20040;-74
2022/01/28 05:39:09;;;;;;;16.55;2.67;;;;;;;4.58;71.07;101059.69;5028420;28;20037;-74
2022/01/28 05:41:34;;;;;;;12.32;2.22;;;;;;;4.60;71.89;101013.56;5029986;28;20025;-73
2022/01/28 05:44:02;;;;;;;18.05;2.92;;;;;;;4.67;71.43;101033.78;5030189;28;20409;-73
2022/01/28 05:46:28;;;;;;;14.90;3.22;;;;;;;4.69;71.04;101041.66;5031545;28;20330;-74
2022/01/28 05:48:56;;;;;;;13.40;2.33;;;;;;;4.70;70.78;101049.56;5034083;28;20048;-74
2022/01/28 05:51:22;;;;;;;18.15;3.22;;;;;;;4.66;71.50;101060.75;5032413;28;20055;-73
2022/01/28 05:53:47;;;;;;;13.57;2.55;;;;;;;4.69;70.97;101046.88;5034175;28;20041;-74
2022/01/28 05:56:12;;;;;;;15.32;2.97;;;;;;;4.71;70.53;101043.47;5031980;28;20137;-74
2022/01/28 05:58:38;;;;;;;14.68;3.17;;;;;;;4.70;70.31;101065.25;5032940;28;20033;-74
2022/01/28 06:01:03;;;;;;;16.80;3.17;;;;;;;4.75;69.73;101068.00;5033665;28;20075;-74
2022/01/28 06:03:28;;;;;;;9.52;2.63;;;;;;;4.77;69.09;101092.47;5033814;28;20037;-74
2022/01/28 06:05:54;;;;;;;11.43;2.38;;;;;;;4.73;70.29;101067.94;5030724;28;20041;-74
2022/01/28 06:08:19;;;;;;;10.60;2.00;;;;;;;4.63;70.98;101067.66;5033772;28;20068;-74
2022/01/28 06:10:45;;;;;;;19.38;3.10;;;;;;;4.63;70.98;101094.69;5033651;28;20510;-74
2022/01/28 06:13:11;;;;;;;15.30;3.13;;;;;;;4.46;72.68;101095.97;5033572;28;20041;-74
2022/01/28 06:15:43;;;;;;;18.80;4.78;;;;;;;4.39;71.84;101090.56;5033388;28;20040;-74
2022/01/28 06:18:10;;;;;;;17.67;3.47;;;;;;;4.32;72.11;101127.81;5033613;28;20053;-74
2022/01/28 06:20:36;;;;;;;17.98;3.40;;;;;;;4.31;71.81;101165.22;5033484;28;20037;-74
2022/01/28 06:23:02;;;;;;;20.27;2.90;;;;;;;4.37;71.33;101104.41;5033629;28;20098;-74
2022/01/28 06:25:27;;;;;;;21.40;3.42;;;;;;;4.39;70.72;101111.47;5033281;28;20037;-74
2022/01/28 06:27:52;;;;;;;15.00;2.38;;;;;;;4.35;71.57;101109.63;5033397;28;20037;-74
2022/01/28 06:30:19;;;;;;;14.23;2.42;;;;;;;4.37;71.11;101123.59;5033280;28;20034;-74
2022/01/28 06:32:45;;;;;;;14.35;2.70;;;;;;;4.40;71.24;101122.78;5030557;28;20037;-74
2022/01/28 06:35:10;;;;;;;13.55;2.83;;;;;;;4.40;71.27;101128.03;5033081;28;20072;-74
2022/01/28 06:37:38;;;;;;;14.88;2.25;;;;;;;4.43;71.60;101124.59;5033291;28;20037;-74
2022/01/28 06:40:06;;;;;;;15.93;2.70;;;;;;;4.49;71.22;101132.66;5030707;28;20385;-74
2022/01/28 06:42:32;;;;;;;15.60;2.97;;;;;;;4.39;72.75;101142.81;5032962;28;20033;-74
2022/01/28 06:44:57;;;;;;;15.82;2.17;;;;;;;4.23;74.84;101169.34;5032761;28;20037;-74
2022/01/28 06:47:22;;;;;;;21.40;2.83;;;;;;;4.08;76.21;101137.53;5033031;28;20034;-73
2022/01/28 06:49:48;;;;;;;19.58;2.55;;;;;;;3.99;76.47;101171.25;5032306;28;20099;-74
2022/01/28 06:52:13;;;;;;;16.60;3.13;;;;;;;3.93;76.45;101159.75;5032515;28;20061;-74
2022/01/28 06:54:38;;;;;;;20.52;2.83;;;;;;;3.92;77.24;101157.97;5032663;28;20040;-74
2022/01/28 06:57:04;;;;;;;18.95;2.50;;;;;;;3.90;76.75;101177.94;5032777;28;20586;-74
2022/01/28 06:59:29;;;;;;;14.45;3.40;;;;;;;3.90;77.51;101161.38;5032204;28;20064;-73
2022/01/28 07:01:55;;;;;;;21.73;3.55;;;;;;;3.90;77.27;101177.94;5030863;28;20041;-74
2022/01/28 07:04:20;;;;;;;16.10;2.88;;;;;;;3.91;76.65;101189.28;5032473;28;20048;-74
2022/01/28 07:06:46;;;;;;;13.80;3.42;;;;;;;3.98;76.76;101179.88;5032584;28;20036;-74
2022/01/28 07:09:12;;;;;;;17.40;3.42;;;;;;;3.99;77.39;101195.63;5031494;28;20045;-73
2022/01/28 07:11:37;;;;;;;17.38;3.05;;;;;;;3.88;79.30;101226.63;5032302;28;20408;-73
2022/01/28 07:14:03;;;;;;;16.88;3.35;;;;;;;3.67;80.88;101205.06;5032720;28;20029;-73
2022/01/28 07:16:30;;;;;;;13.27;3.50;;;;;;;3.60;81.70;101211.78;5027914;28;20041;-73
2022/01/28 07:18:55;;;;;;;21.15;2.72;;;;;;;3.56;81.70;101232.50;5030082;28;20029;-73
2022/01/28 07:21:21;;;;;;;15.80;2.97;;;;;;;3.53;82.49;101237.63;5032326;28;20022;-73
2022/01/28 07:23:46;;;;;;;18.48;2.97;;;;;;;3.48;82.62;101227.94;5032444;28;20045;-73
2022/01/28 07:26:11;;;;;;;18.35;2.90;;;;;;;3.48;83.42;101235.75;5031140;28;20036;-73
2022/01/28 07:28:39;;;;;;;19.15;3.83;;;;;;;3.49;83.25;101220.97;5030029;28;20036;-74
2022/01/28 07:31:04;;;;;;;19.15;3.55;;;;;;;3.51;83.40;101225.41;5032144;28;20048;-73
2022/01/28 07:33:29;;;;;;;18.42;3.35;;;;;;;3.54;82.84;101234.16;5032315;28;20037;-74
2022/01/28 07:35:55;;;;;;;14.75;3.05;;;;;;;3.55;83.04;101233.34;5031959;28;20033;-74
2022/01/28 07:38:20;;;;;;;17.10;2.90;;;;;;;3.59;83.11;101237.81;5032090;28;20037;-73
2022/01/28 07:40:45;;;;;;;13.27;2.78;;;;;;;3.61;82.53;101259.66;5031897;28;20037;-73
2022/01/28 07:43:11;;;;;;;14.98;2.78;;;;;;;3.67;82.23;101252.03;5030870;28;20088;-73
2022/01/28 07:45:37;;;;;;;16.13;2.97;;;;;;;3.70;82.10;101257.34;5031653;28;20045;-73
2022/01/28 07:48:03;;;;;;;14.05;3.38;;;;;;;3.80;81.66;101240.25;5030726;28;20053;-73
2022/01/28 07:50:28;;;;;;;15.93;2.90;;;;;;;3.88;80.76;101247.50;5031744;28;20041;-73
2022/01/28 07:52:54;;;;;;;17.23;3.60;;;;;;;3.91;79.66;101255.44;5031931;28;20488;-73
2022/01/28 07:55:20;;;;;;;16.35;3.53;;;;;;;3.97;78.98;101257.38;5031334;28;20045;-73
2022/01/28 07:57:46;;;;;;;14.45;3.00;;;;;;;3.98;79.22;101279.13;5031548;28;20032;-72
2022/01/28 08:00:13;;;;;;;17.02;3.60;;;;;;;3.93;79.15;101279.91;5027621;28;20025;-73
2022/01/28 08:02:38;;;;;;;18.65;3.38;;;;;;;3.90;79.66;101289.34;5026134;28;20083;-73
2022/01/28 08:05:04;;;;;;;17.33;2.90;;;;;;;3.89;78.95;101274.50;5028076;28;20032;-73
2022/01/28 08:07:29;;;;;;;17.27;3.05;;;;;;;3.97;79.05;101282.59;5028529;28;20029;-73
2022/01/28 08:09:55;;;;;;;19.35;3.58;;;;;;;3.93;78.93;101290.34;5031078;28;20389;-73
2022/01/28 08:12:21;;;;;;;23.55;3.78;;;;;;;3.97;78.74;101304.38;5030364;28;20039;-73
2022/01/28 08:14:47;;;;;;;17.73;3.15;;;;;;;3.95;78.69;101298.22;5031104;28;20068;-73
2022/01/28 08:17:12;;;;;;;19.15;3.35;;;;;;;3.93;78.82;101294.69;5031414;28;20471;-73
2022/01/28 08:19:38;;;;;;;16.60;4.05;;;;;;;4.01;78.37;101314.09;5031368;28;20037;-73
2022/01/28 08:22:04;;;;;;;20.27;3.92;;;;;;;4.09;77.80;101299.56;5031448;28;20044;-73
2022/01/28 08:24:29;;;;;;;15.00;3.28;;;;;;;4.16;77.25;101321.53;5031087;28;20034;-73
2022/01/28 08:26:55;;;;;;;20.50;3.10;;;;;;;4.10;76.88;101331.78;5031262;28;20033;-73
2022/01/28 08:29:21;;;;;;;17.92;2.67;;;;;;;4.18;76.56;101325.09;5031385;28;20483;-74
2022/01/28 08:31:46;;;;;;;18.88;3.40;;;;;;;4.20;75.49;101320.81;5027302;28;20045;-73
2022/01/28 08:34:11;;;;;;;14.63;3.05;;;;;;;4.24;75.68;101325.28;5031286;28;20061;-73
2022/01/28 08:36:37;;;;;;;13.25;2.75;;;;;;;4.25;74.95;101318.34;5030984;28;20392;-73
2022/01/28 08:39:05;;;;;;;17.25;2.88;;;;;;;4.33;74.51;101343.00;5031188;28;20048;-74
2022/01/28 08:41:32;;;;;;;21.90;3.15;;;;;;;4.35;74.55;101341.34;5025762;28;20075;-73
2022/01/28 08:43:57;;;;;;;18.73;3.40;;;;;;;4.40;73.86;101363.25;5028088;28;20038;-73
2022/01/28 08:46:22;;;;;;;16.13;3.22;;;;;;;4.44;73.72;101348.56;5029072;28;20032;-74
2022/01/28 08:48:47;;;;;;;24.35;3.40;;;;;;;4.41;73.80;101370.25;5029317;28;20037;-73
2022/01/28 08:51:13;;;;;;;15.98;2.75;;;;;;;4.47;73.25;101367.84;5034303;28;20037;-73
2022/01/28 08:53:39;;;;;;;16.77;2.85;;;;;;;4.50;72.89;101360.09;5038683;28;20120;-73
2022/01/28 08:56:05;;;;;;;20.85;3.70;;;;;;;4.50;72.36;101374.88;5033528;28;20136;-72
2022/01/28 08:58:30;;;;;;;17.33;2.65;;;;;;;4.50;72.43;101380.13;5031447;28;20068;-74
2022/01/28 09:00:56;;;;;;;18.88;3.50;;;;;;;4.52;72.14;101409.81;5031478;28;20033;-73
2022/01/28 09:03:24;;;;;;;17.10;3.05;;;;;;;4.57;72.61;101374.25;5031323;28;20030;-73
2022/01/28 09:05:50;;;;;;;19.40;2.80;;;;;;;4.58;71.98;101395.22;5029465;28;20188;-73
2022/01/28 09:08:15;;;;;;;18.50;3.50;;;;;;;4.60;71.76;101397.88;5029754;28;20132;-73
2022/01/28 09:10:45;;;;;;;14.35;3.00;;;;;;;4.66;71.84;101408.53;5030110;28;20080;-74
2022/01/28 09:13:21;;;;;;;16.08;3.53;;;;;;;4.74;71.26;101420.13;5030619;28;20103;-74
2022/01/28 09:15:47;;;;;;;16.77;3.13;;;;;;;4.76;71.42;101401.88;5027922;28;20116;-74
2022/01/28 09:18:12;;;;;;;15.43;3.20;;;;;;;4.74;70.90;101430.59;5026900;28;20503;-74
2022/01/28 09:20:39;;;;;;;33.75;5.18;;;;;;;4.81;70.43;101434.28;5032599;28;20033;-73
2022/01/28 09:23:05;;;;;;;23.83;4.57;;;;;;;4.79;70.69;101449.03;5034499;28;20029;-73
2022/01/28 09:25:30;;;;;;;17.00;4.07;;;;;;;4.73;69.98;101417.47;5032768;28;20466;-73
2022/01/28 09:27:56;;;;;;;22.40;3.47;;;;;;;4.71;70.70;101461.84;5032919;28;20104;-73
2022/01/28 09:30:22;;;;;;;17.77;3.75;;;;;;;4.74;70.48;101441.06;5032924;28;20064;-74
2022/01/28 09:32:47;;;;;;;17.23;3.65;;;;;;;4.80;70.56;101453.44;5034489;28;20151;-73
2022/01/28 09:35:13;;;;;;;14.82;3.35;;;;;;;4.79;70.10;101456.88;5034083;28;20502;-74
2022/01/28 09:37:39;;;;;;;16.38;3.35;;;;;;;4.79;70.01;101455.19;5031887;28;20112;-73
2022/01/28 09:40:05;;;;;;;17.38;3.30;;;;;;;4.84;69.97;101476.22;5034279;28;20554;-74
2022/01/28 09:42:33;;;;;;;18.02;4.15;;;;;;;4.88;69.76;101477.22;5034185;28;20037;-74
2022/01/28 09:44:59;;;;;;;20.70;4.20;;;;;;;4.91;69.83;101459.91;5033759;28;20083;-74
2022/01/28 09:47:24;;;;;;;19.85;3.75;;;;;;;4.92;69.18;101473.84;5034147;28;20072;-74
2022/01/28 09:49:51;;;;;;;18.48;3.85;;;;;;;4.94;69.45;101472.19;5033779;28;20450;-74
2022/01/28 09:52:16;;;;;;;24.90;4.47;;;;;;;4.94;69.24;101488.75;5034338;28;20381;-73
2022/01/28 09:54:46;;;;;;;16.55;2.72;;;;;;;5.01;68.92;101495.97;5032627;28;20051;-74
2022/01/28 09:57:16;;;;;;;21.95;3.97;;;;;;;5.02;69.27;101496.84;5032673;28;20393;-73
2022/01/28 09:59:42;;;;;;;17.23;3.42;;;;;;;4.96;69.20;101499.28;5028690;28;20515;-74
2022/01/28 10:02:07;;;;;;;17.15;3.03;;;;;;;5.01;68.69;101490.75;5030458;28;20044;-74
2022/01/28 10:04:33;;;;;;;17.42;3.97;;;;;;;4.96;69.53;101518.47;5028269;28;20029;-74
2022/01/28 10:07:08;;;;;;;18.23;3.55;;;;;;;5.06;68.84;101493.50;5031343;28;20029;-73
2022/01/28 10:09:33;;;;;;;19.08;3.35;;;;;;;5.05;68.94;101502.19;5030766;28;20400;-73
2022/01/28 10:12:19;;;;;;;23.10;3.75;;;;;;;5.14;68.84;101502.50;5032284;28;20029;-73
2022/01/28 10:15:05;;;;;;;21.35;4.40;;;;;;;5.16;67.97;101515.59;5032629;28;20033;-73
2022/01/28 10:17:52;;;;;;;24.80;4.13;;;;;;;5.12;68.50;101512.00;5029825;28;20611;-73
2022/01/28 10:20:17;;;;;;;21.95;3.60;;;;;;;5.14;68.35;101507.72;5030068;28;20038;-73
2022/01/28 10:23:12;;;;;;;18.88;3.72;;;;;;;5.23;67.78;101518.47;5032305;28;20091;-73
2022/01/28 10:25:38;;;;;;;20.25;3.28;;;;;;;5.22;67.69;101560.31;5030248;28;20052;-73
2022/01/28 10:28:06;;;;;;;20.67;3.55;;;;;;;5.19;67.59;101539.28;5033471;28;20068;-74
2022/01/28 10:30:39;;;;;;;21.23;4.10;;;;;;;5.14;66.75;101549.59;5032128;28;20037;-73
2022/01/28 10:33:12;;;;;;;24.58;4.68;;;;;;;5.15;67.15;101534.78;5033567;28;20601;-74
2022/01/28 10:35:38;;;;;;;20.63;4.03;;;;;;;5.30;67.48;101534.38;5031376;28;20029;-74
2022/01/28 10:38:07;;;;;;;19.75;3.83;;;;;;;5.20;66.83;101554.13;5031934;28;20032;-74
2022/01/28 10:40:32;;;;;;;21.92;3.65;;;;;;;5.23;66.19;101572.53;5030548;28;20087;-73
2022/01/28 10:42:58;;;;;;;15.85;3.63;;;;;;;5.29;65.78;101554.41;5033210;28;20041;-74
2022/01/28 10:45:28;;;;;;;19.65;3.42;;;;;;;5.26;66.53;101549.06;5032191;28;20036;-74
2022/01/28 10:47:56;;;;;;;19.83;3.97;;;;;;;5.36;65.68;101584.28;5032939;28;20431;-74
2022/01/28 10:50:33;;;;;;;18.35;3.67;;;;;;;5.42;64.60;101572.31;5032619;28;20083;-73
2022/01/28 10:53:04;;;;;;;13.77;2.88;;;;;;;5.46;65.73;101573.28;5032883;28;20037;-73
2022/01/28 10:55:32;;;;;;;20.73;5.07;;;;;;;5.56;65.29;101580.59;5032819;28;20125;-73
2022/01/28 10:57:58;;;;;;;17.13;3.70;;;;;;;5.56;65.17;101546.53;5031576;28;20033;-74
2022/01/28 11:00:27;;;;;;;15.05;3.15;;;;;;;5.63;64.74;101551.13;5032225;28;20116;-74
2022/01/28 11:02:53;;;;;;;23.27;4.55;;;;;;;5.63;63.41;101566.84;5032384;28;20072;-75
2022/01/28 11:05:19;;;;;;;24.35;5.00;;;;;;;5.58;63.93;101581.53;5032496;28;20037;-74
2022/01/28 11:07:45;;;;;;;22.00;4.75;;;;;;;5.57;63.48;101581.47;5032696;28;20072;-74
2022/01/28 11:10:10;;;;;;;19.83;3.22;;;;;;;5.56;64.38;101572.72;5032596;28;20026;-74
2022/01/28 11:12:36;;;;;;;20.08;4.95;;;;;;;5.66;63.15;101589.63;5032629;28;20499;-74
2022/01/28 11:15:02;;;;;;;20.60;4.65;;;;;;;5.63;63.00;101597.34;5028968;28;20361;-76
2022/01/28 11:17:27;;;;;;;18.45;3.63;;;;;;;5.58;63.20;101578.91;5032494;28;20064;-73
2022/01/28 11:19:55;;;;;;;16.60;4.13;;;;;;;5.62;62.59;101574.63;5028051;28;20065;-74
2022/01/28 11:23:03;;;;;;;18.50;3.40;;;;;;;5.65;63.54;101596.56;5032457;28;20091;-75
2022/01/28 11:25:42;;;;;;;19.92;3.67;;;;;;;5.67;62.62;101584.41;5030725;28;20036;-74
2022/01/28 11:28:13;;;;;;;20.58;4.22;;;;;;;5.74;63.36;101592.44;5028563;28;20044;-74
2022/01/28 11:30:49;;;;;;;16.45;4.28;;;;;;;5.72;63.54;101601.16;5029368;28;20049;-74
2022/01/28 11:33:16;;;;;;;18.30;3.92;;;;;;;5.64;63.10;101586.94;5027736;28;20053;-74
2022/01/28 11:35:53;;;;;;;18.30;3.58;;;;;;;5.82;62.90;101570.03;5026407;28;20029;-74
2022/01/28 11:38:25;;;;;;;17.98;3.58;;;;;;;5.83;63.23;101583.16;5025834;28;20064;-74
2022/01/28 11:41:06;;;;;;;13.85;3.00;;;;;;;5.82;62.36;101573.53;5029530;28;20030;-73
2022/01/28 11:43:33;;;;;;;18.58;4.10;;;;;;;5.78;62.27;101610.94;5032080;28;20424;-73
2022/01/28 11:46:07;;;;;;;17.55;3.50;;;;;;;5.90;62.64;101584.22;5031592;28;20037;-73
2022/01/28 11:48:51;;;;;;;20.38;3.83;;;;;;;6.02;62.18;101586.34;5031801;28;20381;-74
2022/01/28 11:51:38;;;;;;;24.27;4.53;;;;;;;5.99;62.95;101571.41;5030877;28;20037;-74
2022/01/28 11:54:06;;;;;;;15.35;3.30;;;;;;;6.10;62.00;101558.63;5028571;28;20025;-73
2022/01/28 11:56:32;;;;;;;22.92;4.03;;;;;;;6.05;62.03;101570.69;5030578;28;20033;-74
2022/01/28 11:59:03;;;;;;;20.10;4.53;;;;;;;6.17;60.84;101570.19;5027752;28;20029;-73
2022/01/28 12:01:37;;;;;;;17.95;3.45;;;;;;;6.12;60.36;101605.00;5027513;28;20048;-73
2022/01/28 12:04:25;;;;;;;21.85;4.07;;;;;;;6.10;60.52;101595.31;5029938;28;20044;-73
2022/01/28 12:07:03;;;;;;;22.98;4.20;;;;;;;6.01;61.09;101582.84;5028353;28;20075;-73
2022/01/28 12:09:30;;;;;;;20.23;3.13;;;;;;;5.90;61.30;101592.09;5026160;28;20125;-74
2022/01/28 12:11:57;;;;;;;22.65;4.47;;;;;;;5.80;61.41;101584.78;5026683;28;20042;-74
2022/01/28 12:15:08;;;;;;;20.88;3.60;;;;;;;5.84;61.80;101586.66;5026592;28;20110;-74
2022/01/28 12:17:36;;;;;;;18.38;3.38;;;;;;;5.76;61.63;101596.88;5024381;28;20512;-73
2022/01/28 12:20:13;;;;;;;18.35;3.22;;;;;;;5.77;62.13;101580.34;5026417;28;20025;-74
2022/01/28 12:23:22;;;;;;;20.58;3.72;;;;;;;5.75;61.26;101597.75;5026419;28;20611;-74
2022/01/28 12:25:49;;;;;;;18.52;2.53;;;;;;;5.70;61.44;101581.88;5029626;28;20112;-74
2022/01/28 12:28:19;;;;;;;19.73;3.60;;;;;;;5.81;60.51;101602.28;5030989;28;20122;-74
2022/01/28 12:30:47;;;;;;;13.82;3.33;;;;;;;5.70;61.10;101589.75;5031028;28;20077;-74
2022/01/28 12:33:14;;;;;;;20.38;3.65;;;;;;;5.65;60.96;101591.31;5031310;28;20071;-73
2022/01/28 12:35:42;;;;;;;16.23;3.40;;;;;;;5.94;60.24;101609.69;5021509;28;20476;-73
2022/01/28 12:38:09;;;;;;;15.35;2.88;;;;;;;5.98;60.41;101574.88;5031122;28;20492;-74
2022/01/28 12:40:41;;;;;;;16.25;3.38;;;;;;;6.38;60.38;101570.78;5028719;28;20022;-74
2022/01/28 12:43:08;;;;;;;17.08;3.30;;;;;;;6.65;57.56;101601.22;5028359;28;20453;-73
2022/01/28 12:45:34;;;;;;;19.35;3.72;;;;;;;6.87;57.37;101574.72;5029363;28;20634;-74
2022/01/28 12:48:00;;;;;;;17.25;3.15;;;;;;;6.80;57.44;101572.75;5027006;28;20381;-74
2022/01/28 12:50:28;;;;;;;21.83;3.42;;;;;;;6.83;57.67;101564.97;5030889;28;20040;-74
2022/01/28 12:52:53;;;;;;;18.92;3.75;;;;;;;6.92;56.36;101625.56;5034003;28;20045;-74
2022/01/28 12:55:18;;;;;;;15.32;3.97;;;;;;;6.92;56.50;101588.84;5036028;28;20042;-73